Flight Track Log - Related Links

Times and Time Zones

All times are in EDT time to prevent confusion due to time zone crossing. See the KAP66 flight status page for this flight to view local times or setup timezone preferences in your user account.


Time Position Orientation Groundspeed Altitude Reporting Facility
EDT Latitude Longitude Course Direction KTS MPH feet Rate Location/Type
Wed 11:23:58 AM 41.6631 -70.9422 124° Southeast 84 97 500  Level Boston Center
Wed 11:25:00 AM 41.6415 -70.8992 124° Southeast  Level FlightAware Approximate
Wed 11:32:00 AM 41.5064 -70.6094 121° Southeast  Level FlightAware Approximate
Wed 11:33:00 AM 41.4873 -70.5664 121° Southeast  Level FlightAware Approximate
Wed 11:34:00 AM 41.4682 -70.5234 121° Southeast  Level FlightAware Approximate
Wed 11:35:00 AM 41.4490 -70.4804 121° Southeast  Level FlightAware Approximate
Wed 11:36:00 AM 41.4299 -70.4374 121° Southeast  Level FlightAware Approximate
Wed 11:37:00 AM 41.4107 -70.3945 121° Southeast  Level FlightAware Approximate
Wed 11:38:00 AM 41.3915 -70.3515 121° Southeast  Level FlightAware Approximate
Wed 11:39:00 AM 41.3690 -70.3118 132° Southeast  Level FlightAware Approximate
Wed 11:40:00 AM 41.3455 -70.2732 121° Southeast  Level FlightAware Approximate
Wed 11:41:00 AM 41.3264 -70.2302 121° Southeast  Level FlightAware Approximate
Wed 11:42:00 AM 41.3073 -70.1873 121° Southeast  Level FlightAware Approximate
Wed 11:43:00 AM 41.2882 -70.1443 121° Southeast  Level FlightAware Approximate
Wed 11:44:00 AM 41.2702 -70.1006 118° Southeast  Level FlightAware Approximate
Wed 11:45:00 AM 41.2526 -70.0566 118° Southeast  Level FlightAware Approximate
Wed 11:46:00 AM 41.2500 -70.0500 118° Southeast  Level FlightAware Approximate
Wed 11:47:00 AM 41.2531 -70.0603 118° Southeast  Level Estimated
Wed 11:48:00 AM 41.2531 -70.0603 118° Southeast  Level Estimated
Wed 11:49:00 AM 41.2531 -70.0603 118° Southeast  Level Estimated
Wed 11:50:00 AM 41.2531 -70.0603 118° Southeast  Level Estimated
Wed 11:51:00 AM 41.2531 -70.0603 118° Southeast  Level Estimated
Wed 11:52:00 AM 41.2531 -70.0603 118° Southeast  Level Estimated
Wed 11:53:00 AM 41.2531 -70.0603 118° Southeast  Level Estimated
Wed 11:54:00 AM 41.2531 -70.0603 118° Southeast  Level Estimated
Wed 11:55:00 AM 41.2531 -70.0603 118° Southeast  Level Estimated
Wed 11:56:00 AM 41.2531 -70.0603 118° Southeast  Level Estimated
Wed 11:57:00 AM 41.2531 -70.0603 118° Southeast  Level Estimated
Wed 11:58:00 AM 41.2531 -70.0603 118° Southeast  Level Estimated
Wed 11:59:00 AM 41.2531 -70.0603 118° Southeast  Level Estimated
Wed 12:00:00 PM 41.2531 -70.0603 118° Southeast  Level Estimated

Login

Don't have an account? Register now (free) for customized features, flight alerts, and more!